Time;durP1;ratioP1;P1;durP2;ratioP2;P2;SDS_P1;SDS_P2;PMS_P1;PMS_P2;Temp;Humidity;BMP_temperature;BMP_pressure;BME280_temperature;BME280_humidity;BME280_pressure;Samples;Min_cycle;Max_cycle;Signal;HPM_P1;HPM_P2
2023/01/03 00:01:15;;;;;;;9.57;6.82;;;6.60;66.20;;;;;;5012837;28;20048;-79
2023/01/03 00:04:00;;;;;;;10.40;6.82;;;6.70;66.40;;;;;;5008402;28;20410;-79
2023/01/03 00:06:48;;;;;;;7.40;6.68;;;6.70;66.40;;;;;;5008137;28;20108;-79
2023/01/03 00:09:32;;;;;;;10.48;6.68;;;6.70;66.40;;;;;;5014454;28;20044;-79
2023/01/03 00:12:23;;;;;;;9.10;7.63;;;6.70;66.40;;;;;;5019001;28;20096;-79
2023/01/03 00:15:08;;;;;;;8.25;6.93;;;6.70;66.50;;;;;;5001438;28;20133;-78
2023/01/03 00:17:54;;;;;;;9.50;7.30;;;6.70;66.50;;;;;;5016567;28;20051;-79
2023/01/03 00:20:38;;;;;;;9.65;6.95;;;6.70;66.50;;;;;;5010346;28;20057;-78
2023/01/03 00:23:23;;;;;;;8.73;6.05;;;6.70;66.50;;;;;;5007716;28;20064;-79
2023/01/03 00:26:14;;;;;;;9.65;6.82;;;6.80;66.70;;;;;;5009264;28;20037;-79
2023/01/03 00:28:58;;;;;;;7.32;6.63;;;6.70;66.50;;;;;;5012942;28;20043;-80
2023/01/03 00:31:43;;;;;;;7.82;6.97;;;6.70;66.50;;;;;;5012972;28;20045;-79
2023/01/03 00:34:28;;;;;;;7.30;6.07;;;6.70;66.50;;;;;;5011075;28;20084;-79
2023/01/03 00:37:13;;;;;;;9.63;6.85;;;6.80;66.70;;;;;;5007224;28;20041;-80
2023/01/03 00:39:58;;;;;;;9.05;6.45;;;6.70;66.50;;;;;;5007689;28;20433;-79
2023/01/03 00:45:46;;;;;;;8.80;6.25;;;6.80;66.70;;;;;;5013466;28;20056;-79
2023/01/03 00:48:32;;;;;;;7.53;6.05;;;6.80;66.70;;;;;;5021640;28;20121;-78
2023/01/03 00:51:25;;;;;;;10.30;6.20;;;6.80;67.20;;;;;;5005142;28;20117;-80
2023/01/03 00:54:11;;;;;;;8.63;6.00;;;6.80;66.90;;;;;;5007930;28;20052;-78
2023/01/03 00:56:55;;;;;;;7.47;5.63;;;6.80;66.70;;;;;;5003927;28;20047;-78
2023/01/03 00:59:39;;;;;;;8.25;6.32;;;6.80;66.70;;;;;;5010603;28;20087;-78
2023/01/03 01:02:24;;;;;;;8.85;5.72;;;6.80;66.70;;;;;;5017046;28;20041;-79
2023/01/03 01:05:09;;;;;;;10.82;6.13;;;6.80;66.70;;;;;;5003312;28;20053;-79
2023/01/03 01:07:54;;;;;;;9.43;5.95;;;6.80;66.70;;;;;;5010678;28;20044;-79
2023/01/03 01:11:00;;;;;;;6.53;5.43;;;6.80;66.70;;;;;;5002976;28;20040;-79
2023/01/03 01:13:46;;;;;;;7.93;5.18;;;6.80;66.70;;;;;;5003225;28;20053;-79
2023/01/03 01:16:31;;;;;;;10.35;6.20;;;6.80;66.70;;;;;;5007697;28;20115;-80
2023/01/03 01:19:17;;;;;;;7.65;5.07;;;6.90;66.90;;;;;;5007678;28;20136;-79
2023/01/03 01:22:02;;;;;;;8.35;5.90;;;6.90;66.90;;;;;;5005963;28;20073;-80
2023/01/03 01:24:46;;;;;;;6.15;4.93;;;6.90;66.90;;;;;;5013592;28;20692;-79
2023/01/03 01:27:31;;;;;;;6.85;5.60;;;6.90;66.90;;;;;;5013546;28;20045;-78
2023/01/03 01:30:15;;;;;;;5.38;4.88;;;6.90;66.90;;;;;;5003928;28;20588;-78
2023/01/03 01:33:00;;;;;;;7.63;5.40;;;6.90;66.90;;;;;;5008816;28;20092;-77
2023/01/03 01:35:45;;;;;;;6.03;4.50;;;7.00;67.10;;;;;;4997772;28;20060;-79
2023/01/03 01:38:29;;;;;;;6.18;4.53;;;7.00;67.10;;;;;;5006358;28;20697;-77
2023/01/03 01:44:43;;;;;;;5.80;4.63;;;7.00;67.00;;;;;;5002711;28;20140;-79
2023/01/03 01:47:47;;;;;;;7.28;4.53;;;7.00;67.10;;;;;;4987180;28;20032;-79
2023/01/03 01:50:44;;;;;;;5.72;4.38;;;7.10;67.20;;;;;;5010169;28;20387;-79
2023/01/03 01:53:33;;;;;;;8.82;4.25;;;7.10;67.20;;;;;;4994902;28;20405;-79
2023/01/03 01:56:26;;;;;;;5.68;4.72;;;7.10;67.20;;;;;;5003355;28;20129;-79
2023/01/03 01:59:12;;;;;;;6.15;4.78;;;7.10;67.20;;;;;;5005146;28;20044;-79
2023/01/03 02:01:57;;;;;;;6.32;4.45;;;7.10;67.20;;;;;;5011755;28;20094;-79
2023/01/03 02:04:43;;;;;;;5.70;4.85;;;7.10;67.20;;;;;;5008856;28;20641;-78
2023/01/03 02:07:27;;;;;;;9.27;4.47;;;7.10;67.20;;;;;;5009307;28;20029;-78
2023/01/03 02:10:12;;;;;;;6.57;4.60;;;7.10;67.30;;;;;;4997310;28;20044;-79
2023/01/03 02:13:14;;;;;;;6.03;4.15;;;7.10;67.30;;;;;;5020424;28;20087;-79
2023/01/03 02:16:02;;;;;;;5.95;4.13;;;7.20;67.50;;;;;;5012533;28;20036;-79
2023/01/03 02:19:22;;;;;;;7.93;4.18;;;7.20;67.60;;;;;;5013264;28;20037;-78
2023/01/03 02:22:17;;;;;;;5.97;4.47;;;7.20;67.60;;;;;;5004714;28;20532;-79
2023/01/03 02:25:13;;;;;;;5.68;4.38;;;7.20;67.60;;;;;;5008493;28;20049;-79
2023/01/03 02:28:20;;;;;;;6.72;4.07;;;7.20;67.60;;;;;;5019167;28;20036;-78
2023/01/03 02:31:32;;;;;;;5.05;3.85;;;7.20;67.70;;;;;;4999575;28;20049;-79
2023/01/03 02:34:25;;;;;;;5.95;4.28;;;7.20;67.70;;;;;;5004669;28;20081;-78
2023/01/03 02:37:22;;;;;;;4.57;3.90;;;7.20;67.70;;;;;;5017199;28;20037;-79
2023/01/03 02:40:09;;;;;;;6.43;4.22;;;7.20;67.80;;;;;;5003260;28;20064;-79
2023/01/03 02:43:28;;;;;;;6.15;4.00;;;7.20;67.80;;;;;;5002187;28;20215;-79
2023/01/03 02:46:18;;;;;;;6.05;4.20;;;7.10;68.10;;;;;;5004537;28;20053;-79
2023/01/03 02:49:26;;;;;;;6.00;3.60;;;7.10;67.70;;;;;;4999587;28;20782;-78
2023/01/03 02:52:31;;;;;;;4.95;4.00;;;7.00;67.60;;;;;;4997491;28;20148;-79
2023/01/03 02:55:20;;;;;;;4.80;3.95;;;7.00;67.60;;;;;;4998854;28;20398;-79
2023/01/03 02:58:13;;;;;;;4.88;3.63;;;7.00;67.70;;;;;;5009533;28;20032;-79
2023/01/03 03:00:58;;;;;;;5.90;3.60;;;6.90;67.60;;;;;;5004846;28;20060;-79
2023/01/03 03:03:45;;;;;;;3.83;3.45;;;6.90;67.70;;;;;;5001143;28;20044;-79
2023/01/03 03:06:58;;;;;;;6.38;3.13;;;6.90;67.70;;;;;;4999625;28;20628;-77
2023/01/03 03:16:04;;;;;;;4.28;3.13;;;6.70;67.50;;;;;;5009341;28;20106;-78
2023/01/03 03:18:59;;;;;;;5.07;3.25;;;6.80;67.70;;;;;;5004712;28;20092;-77
2023/01/03 03:24:51;;;;;;;3.00;2.47;;;6.70;68.10;;;;;;5011396;28;20169;-77
2023/01/03 03:30:46;;;;;;;3.80;3.17;;;6.70;67.70;;;;;;5011552;28;20512;-77
2023/01/03 03:33:34;;;;;;;6.72;2.83;;;6.70;67.70;;;;;;5008537;28;20048;-76
2023/01/03 03:36:31;;;;;;;3.08;2.60;;;6.70;67.70;;;;;;4996104;28;20139;-77
2023/01/03 03:46:09;;;;;;;6.57;2.40;;;6.80;67.90;;;;;;4999177;28;20046;-78
2023/01/03 03:52:17;;;;;;;3.20;1.90;;;6.80;67.90;;;;;;4994464;28;20097;-79
2023/01/03 03:55:08;;;;;;;2.83;1.83;;;6.80;67.80;;;;;;5010177;28;20068;-78
2023/01/03 03:58:07;;;;;;;2.50;2.05;;;6.90;68.10;;;;;;5011273;28;20041;-78
2023/01/03 04:00:53;;;;;;;5.97;1.75;;;6.90;68.10;;;;;;5007247;28;20101;-79
2023/01/03 04:03:41;;;;;;;4.38;1.70;;;7.00;68.30;;;;;;5011420;28;20092;-79
2023/01/03 04:06:42;;;;;;;1.67;1.40;;;7.00;68.30;;;;;;5010876;28;20037;-78
2023/01/03 04:09:27;;;;;;;4.53;1.50;;;7.10;68.50;;;;;;5007434;28;20041;-79
2023/01/03 04:12:11;;;;;;;2.25;2.05;;;7.10;68.50;;;;;;5016625;28;20104;-79
2023/01/03 04:14:55;;;;;;;2.33;1.42;;;7.10;68.50;;;;;;5017242;28;20044;-78
2023/01/03 04:17:40;;;;;;;2.53;1.50;;;7.20;68.70;;;;;;5009403;28;20040;-78
2023/01/03 04:20:25;;;;;;;3.65;1.48;;;7.20;68.70;;;;;;5000450;28;20037;-79
2023/01/03 04:23:10;;;;;;;2.60;1.35;;;7.20;68.70;;;;;;5008255;28;20084;-79
2023/01/03 04:25:54;;;;;;;2.70;1.25;;;7.30;68.90;;;;;;5010106;28;20045;-79
2023/01/03 04:28:39;;;;;;;2.83;1.70;;;7.30;68.90;;;;;;5002739;28;20537;-78
2023/01/03 04:31:23;;;;;;;4.53;1.27;;;7.40;69.10;;;;;;5018794;28;20147;-79
2023/01/03 04:34:08;;;;;;;3.15;1.00;;;7.40;69.10;;;;;;5006322;28;20535;-79
2023/01/03 04:36:53;;;;;;;3.20;1.00;;;7.50;69.30;;;;;;5010235;28;20040;-78
2023/01/03 04:39:37;;;;;;;2.72;1.05;;;7.50;69.30;;;;;;5008105;28;20056;-79
2023/01/03 04:45:25;;;;;;;1.50;1.08;;;7.60;69.50;;;;;;5006485;28;20108;-78
2023/01/03 04:48:10;;;;;;;3.45;1.38;;;7.70;69.70;;;;;;4998035;28;20048;-78
2023/01/03 04:50:57;;;;;;;1.95;0.88;;;7.70;69.60;;;;;;5003844;28;20425;-78
2023/01/03 04:53:42;;;;;;;4.20;1.08;;;7.80;69.80;;;;;;5011506;28;20624;-78
2023/01/03 04:56:29;;;;;;;3.88;0.82;;;7.80;69.80;;;;;;5009765;28;20037;-78
2023/01/03 04:59:13;;;;;;;4.85;1.35;;;7.90;70.00;;;;;;4999592;28;20947;-78
2023/01/03 05:01:58;;;;;;;1.40;1.10;;;7.90;70.00;;;;;;5006223;28;20037;-78
2023/01/03 05:04:43;;;;;;;3.75;1.10;;;8.00;70.20;;;;;;5001072;28;20044;-79
2023/01/03 05:07:28;;;;;;;2.15;0.98;;;8.00;70.30;;;;;;5024428;28;20095;-85
2023/01/03 05:10:12;;;;;;;1.70;0.77;;;8.10;70.40;;;;;;5014120;28;20116;-76
2023/01/03 05:13:00;;;;;;;2.40;0.80;;;8.00;70.30;;;;;;4996779;28;20080;-77
2023/01/03 05:15:45;;;;;;;3.53;1.13;;;8.10;70.50;;;;;;5011830;28;20045;-83
2023/01/03 05:18:30;;;;;;;1.77;0.82;;;8.20;70.70;;;;;;4995122;28;20093;-79
2023/01/03 05:27:27;;;;;;;;;;;8.30;70.80;;;;;;5018440;28;20099;-80
2023/01/03 05:30:12;;;;;;;1.70;0.88;;;8.30;70.80;;;;;;5013266;28;20074;-79
2023/01/03 05:32:57;;;;;;;3.38;1.33;;;8.30;70.60;;;;;;5021481;28;20065;-76
2023/01/03 05:35:45;;;;;;;3.53;1.25;;;8.40;70.80;;;;;;5015695;28;20037;-76
2023/01/03 05:38:30;;;;;;;6.88;1.23;;;8.40;70.80;;;;;;5014902;28;20571;-77
2023/01/03 05:41:58;;;;;;;3.45;0.95;;;8.50;71.00;;;;;;5012437;28;20682;-77
2023/01/03 05:44:19;;;;;;;1.70;1.02;;;8.50;71.00;;;;;;5009512;28;20048;-78
2023/01/03 05:47:04;;;;;;;7.18;1.83;;;8.60;71.20;;;;;;5005545;28;20052;-75
2023/01/03 05:49:48;;;;;;;3.83;1.30;;;8.60;71.10;;;;;;5009039;28;20048;-76
2023/01/03 05:52:33;;;;;;;5.63;1.50;;;8.60;71.20;;;;;;5021934;28;20592;-76
2023/01/03 05:55:17;;;;;;;5.07;1.40;;;8.70;71.30;;;;;;4995114;28;20044;-76
2023/01/03 05:58:04;;;;;;;2.88;1.13;;;8.70;71.40;;;;;;5006792;28;20033;-75
2023/01/03 06:00:48;;;;;;;3.22;1.05;;;8.70;71.40;;;;;;5002104;28;20044;-75
2023/01/03 06:03:33;;;;;;;3.72;1.10;;;8.80;71.60;;;;;;5009664;28;20063;-75
2023/01/03 06:06:17;;;;;;;2.95;1.23;;;8.80;71.60;;;;;;5006616;28;20095;-77
2023/01/03 06:09:02;;;;;;;4.38;1.60;;;8.80;71.60;;;;;;5004933;28;20069;-76
2023/01/03 06:11:46;;;;;;;3.47;1.08;;;8.90;71.80;;;;;;5012411;28;20672;-76
2023/01/03 06:14:32;;;;;;;4.53;1.27;;;8.90;71.80;;;;;;5006695;28;20493;-76
2023/01/03 06:20:20;;;;;;;4.50;1.75;;;8.90;71.90;;;;;;5013549;28;20835;-77
2023/01/03 06:23:05;;;;;;;6.80;2.00;;;9.00;72.00;;;;;;5003861;28;20076;-76
2023/01/03 06:25:49;;;;;;;5.75;1.95;;;9.00;72.10;;;;;;5004764;28;20425;-76
2023/01/03 06:28:34;;;;;;;6.03;1.30;;;9.10;72.30;;;;;;5006767;28;20044;-75
2023/01/03 06:31:19;;;;;;;3.45;1.08;;;9.10;72.30;;;;;;5003499;28;20115;-76
2023/01/03 06:34:03;;;;;;;7.47;2.00;;;9.10;72.30;;;;;;5000043;28;20178;-77
2023/01/03 06:36:51;;;;;;;3.63;1.05;;;9.20;72.40;;;;;;5016983;28;20072;-79
2023/01/03 06:39:35;;;;;;;7.57;1.27;;;9.20;72.40;;;;;;5027925;28;20040;-81
2023/01/03 06:42:38;;;;;;;5.85;1.20;;;9.30;72.60;;;;;;5016615;28;20453;-82
2023/01/03 06:54:36;;;;;;;6.32;1.73;;;9.40;72.70;;;;;;5013615;28;20053;-81
2023/01/03 06:57:20;;;;;;;6.30;1.23;;;9.50;72.80;;;;;;5004938;28;20063;-79
2023/01/03 07:00:05;;;;;;;4.53;1.17;;;9.50;72.90;;;;;;5001328;28;20044;-81
2023/01/03 07:02:51;;;;;;;3.80;1.17;;;9.50;72.90;;;;;;5015497;28;20036;-85
2023/01/03 07:05:35;;;;;;;6.40;1.52;;;9.50;73.00;;;;;;5008628;28;20056;-78
2023/01/03 07:08:21;;;;;;;5.45;1.40;;;9.60;73.30;;;;;;5004775;28;20041;-77
2023/01/03 07:11:06;;;;;;;7.30;1.30;;;9.70;73.50;;;;;;4998968;28;20132;-78
2023/01/03 07:13:59;;;;;;;3.55;1.70;;;9.80;73.70;;;;;;5005254;28;20072;-78
2023/01/03 07:16:46;;;;;;;7.13;2.35;;;9.80;73.70;;;;;;5007849;28;20627;-77
2023/01/03 07:19:30;;;;;;;5.88;1.45;;;9.80;73.70;;;;;;5018353;28;20528;-86
2023/01/03 07:22:15;;;;;;;6.63;1.33;;;9.90;73.90;;;;;;5004951;28;20338;-88
2023/01/03 07:25:00;;;;;;;7.80;1.45;;;9.90;73.90;;;;;;5010605;28;20068;-87
2023/01/03 07:27:54;;;;;;;7.75;1.67;;;10.00;74.10;;;;;;5007115;28;20036;-85
2023/01/03 07:30:38;;;;;;;;;;;10.00;74.10;;;;;;5020994;28;20056;-80
2023/01/03 07:33:23;;;;;;;7.13;1.42;;;10.00;74.10;;;;;;5003106;28;19995;-77
2023/01/03 07:36:10;;;;;;;7.18;1.58;;;10.10;74.10;;;;;;5005673;28;20049;-78
2023/01/03 07:38:54;;;;;;;7.07;1.85;;;10.10;74.10;;;;;;5013831;28;20084;-86
2023/01/03 07:44:42;;;;;;;5.10;1.10;;;10.20;74.30;;;;;;5020436;28;20052;-77
2023/01/03 07:47:27;;;;;;;5.03;1.13;;;10.20;74.20;;;;;;5010166;28;20037;-85
2023/01/03 07:50:12;;;;;;;3.60;1.27;;;10.30;74.40;;;;;;5006232;28;20041;-83
2023/01/03 07:52:56;;;;;;;4.45;1.10;;;10.30;74.40;;;;;;5007055;28;20144;-80
2023/01/03 07:55:40;;;;;;;2.25;1.17;;;10.30;74.40;;;;;;5005367;28;20044;-82
2023/01/03 07:58:25;;;;;;;3.83;1.45;;;10.30;74.50;;;;;;5006709;28;20674;-85
2023/01/03 08:01:12;;;;;;;7.30;2.15;;;10.30;74.40;;;;;;5010328;28;20072;-82
2023/01/03 08:03:56;;;;;;;4.25;1.95;;;10.40;74.70;;;;;;5015717;28;20053;-79
2023/01/03 08:06:41;;;;;;;6.53;1.90;;;10.40;74.60;;;;;;5007046;28;20045;-80
2023/01/03 08:15:32;;;;;;;6.43;1.88;;;10.50;74.80;;;;;;5020692;28;20045;-79
2023/01/03 08:18:20;;;;;;;4.72;1.00;;;10.40;74.60;;;;;;5006404;28;20071;-83
2023/01/03 08:21:07;;;;;;;4.03;1.95;;;10.50;74.80;;;;;;5006622;28;20119;-82
2023/01/03 08:23:52;;;;;;;7.38;1.20;;;10.50;74.80;;;;;;4995028;28;20065;-83
2023/01/03 08:26:38;;;;;;;6.72;1.83;;;10.50;74.90;;;;;;5008399;28;20336;-88
2023/01/03 08:29:24;;;;;;;4.72;1.27;;;10.50;74.90;;;;;;5000210;28;20448;-84
2023/01/03 08:32:09;;;;;;;6.38;1.88;;;10.50;74.90;;;;;;5009748;28;20061;-80
2023/01/03 08:34:54;;;;;;;6.38;1.55;;;10.50;74.90;;;;;;4998759;28;20048;-79
2023/01/03 08:37:38;;;;;;;7.80;1.20;;;10.60;75.00;;;;;;5000440;28;20319;-85
2023/01/03 08:40:23;;;;;;;4.63;1.63;;;10.60;75.00;;;;;;5005670;28;20048;-86
2023/01/03 08:43:09;;;;;;;6.85;1.50;;;10.60;75.00;;;;;;5007017;28;20560;-83
2023/01/03 08:45:54;;;;;;;5.72;1.20;;;10.60;75.00;;;;;;4980443;28;20052;-85
2023/01/03 08:48:39;;;;;;;7.20;1.58;;;10.60;74.90;;;;;;5007837;28;20036;-83
2023/01/03 08:51:25;;;;;;;4.50;1.20;;;10.70;75.10;;;;;;5011107;28;20582;-91
2023/01/03 08:54:09;;;;;;;6.43;1.33;;;10.70;75.10;;;;;;5005304;28;20491;-79
2023/01/03 08:56:54;;;;;;;5.25;1.58;;;10.70;75.10;;;;;;4998607;28;20080;-79
2023/01/03 08:59:39;;;;;;;4.43;1.13;;;10.80;75.20;;;;;;5006508;28;20040;-78
2023/01/03 09:02:23;;;;;;;4.30;1.13;;;10.70;75.00;;;;;;5002250;28;20045;-94
2023/01/03 09:05:08;;;;;;;3.90;1.40;;;10.80;75.20;;;;;;5008505;28;20052;-89
2023/01/03 09:07:54;;;;;;;6.05;1.42;;;10.80;75.20;;;;;;5015685;28;20091;-88
2023/01/03 09:10:39;;;;;;;5.90;1.73;;;10.80;75.20;;;;;;5011163;28;20067;-91
2023/01/03 09:13:23;;;;;;;3.83;1.15;;;10.80;75.20;;;;;;5007462;28;20044;-81
2023/01/03 09:16:10;;;;;;;2.72;1.15;;;10.90;75.30;;;;;;5008531;28;20041;-81
2023/01/03 09:18:55;;;;;;;2.67;1.13;;;10.90;75.40;;;;;;5010320;28;20091;-79
2023/01/03 09:21:39;;;;;;;2.17;0.60;;;10.90;75.40;;;;;;5013243;28;20045;-87
2023/01/03 09:24:24;;;;;;;3.30;0.73;;;10.90;75.40;;;;;;5009520;28;20056;-85
2023/01/03 09:27:09;;;;;;;6.10;1.02;;;10.90;75.40;;;;;;5009326;28;20528;-82
2023/01/03 09:29:53;;;;;;;3.85;1.77;;;11.00;75.50;;;;;;5004026;28;20205;-82
2023/01/03 09:32:38;;;;;;;3.55;1.08;;;11.00;75.50;;;;;;5004987;28;20393;-81
2023/01/03 09:35:23;;;;;;;4.60;1.30;;;11.00;75.50;;;;;;4995938;28;20622;-83
2023/01/03 09:38:07;;;;;;;3.30;0.88;;;11.00;75.40;;;;;;5006101;28;20099;-84
2023/01/03 09:41:05;;;;;;;1.67;0.50;;;11.10;75.60;;;;;;5009118;28;20048;-85
2023/01/03 09:43:57;;;;;;;2.60;1.15;;;11.10;75.50;;;;;;5002267;28;20544;-83
2023/01/03 09:46:42;;;;;;;2.40;0.88;;;11.10;75.50;;;;;;5001863;28;20085;-81
2023/01/03 09:49:26;;;;;;;2.95;0.68;;;11.20;75.60;;;;;;5007850;28;20501;-81
2023/01/03 10:04:55;;;;;;;1.17;0.70;;;11.20;75.50;;;;;;5007655;28;20061;-82
2023/01/03 10:08:01;;;;;;;2.03;0.65;;;11.20;75.50;;;;;;5000475;28;20044;-84
2023/01/03 10:11:07;;;;;;;2.17;0.70;;;11.30;75.70;;;;;;4989746;28;20396;-83
2023/01/03 10:14:20;;;;;;;2.72;0.85;;;11.30;75.70;;;;;;5013832;28;20091;-85
2023/01/03 10:17:20;;;;;;;2.85;0.82;;;11.30;75.80;;;;;;5011791;28;20303;-81
2023/01/03 10:20:24;;;;;;;4.05;1.00;;;11.30;75.70;;;;;;5012161;28;20052;-80
2023/01/03 10:23:10;;;;;;;3.17;0.75;;;11.30;75.80;;;;;;4999795;28;20110;-82
2023/01/03 10:25:55;;;;;;;4.15;0.82;;;11.30;75.80;;;;;;5005680;28;20100;-82
2023/01/03 10:28:44;;;;;;;5.63;1.52;;;11.30;75.80;;;;;;5012625;28;20040;-82
2023/01/03 10:31:49;;;;;;;5.03;1.10;;;11.40;76.00;;;;;;5002836;28;20090;-82
2023/01/03 10:34:37;;;;;;;1.63;0.70;;;11.40;76.00;;;;;;4998384;28;20041;-82
2023/01/03 10:37:27;;;;;;;1.80;0.60;;;11.50;76.10;;;;;;5006600;28;20088;-82
2023/01/03 10:40:13;;;;;;;3.17;0.88;;;11.50;76.10;;;;;;5003598;28;20599;-84
2023/01/03 10:42:57;;;;;;;1.50;0.75;;;11.50;75.90;;;;;;4994917;28;20029;-84
2023/01/03 10:45:52;;;;;;;2.00;0.98;;;11.60;76.00;;;;;;5001471;28;20040;-85
2023/01/03 10:48:40;;;;;;;1.70;0.60;;;11.60;75.90;;;;;;5006583;28;20068;-83
2023/01/03 10:52:10;;;;;;;3.05;1.27;;;11.70;76.00;;;;;;4992410;28;20089;-83
2023/01/03 10:55:24;;;;;;;3.03;0.70;;;11.70;76.00;;;;;;4991972;28;20060;-84
2023/01/03 10:58:34;;;;;;;2.63;0.52;;;11.80;76.10;;;;;;5001812;28;20074;-83
2023/01/03 11:01:25;;;;;;;2.60;0.98;;;11.80;76.10;;;;;;5009420;28;20041;-84
2023/01/03 11:04:18;;;;;;;2.97;0.70;;;11.90;76.20;;;;;;4996719;28;20414;-84
2023/01/03 11:07:12;;;;;;;1.15;0.95;;;11.90;76.10;;;;;;5006897;28;20048;-84
2023/01/03 11:09:57;;;;;;;;;;;12.00;76.20;;;;;;5009743;28;20068;-85
2023/01/03 11:12:41;;;;;;;1.17;0.70;;;12.00;76.10;;;;;;5020437;28;19975;-87
2023/01/03 11:15:32;;;;;;;1.48;0.60;;;12.10;76.10;;;;;;5005549;28;20092;-84
2023/01/03 11:18:19;;;;;;;4.75;1.10;;;12.20;76.10;;;;;;5006068;28;20247;-85
2023/01/03 11:21:36;;;;;;;3.33;1.13;;;12.30;76.10;;;;;;5011781;28;20056;-84
2023/01/03 11:24:33;;;;;;;4.68;1.20;;;12.40;76.20;;;;;;5022276;28;20068;-85
2023/01/03 11:28:00;;;;;;;2.95;1.20;;;12.50;76.20;;;;;;5011672;28;20045;-83
2023/01/03 11:30:47;;;;;;;2.67;0.95;;;12.60;76.20;;;;;;5002045;28;20040;-83
2023/01/03 11:33:47;;;;;;;3.33;1.20;;;12.70;76.10;;;;;;5013390;28;20060;-83
2023/01/03 11:37:00;;;;;;;3.30;1.27;;;12.70;76.10;;;;;;5011978;28;20076;-85
2023/01/03 11:40:10;;;;;;;5.80;0.95;;;12.70;76.00;;;;;;5004778;28;20048;-83
2023/01/03 11:43:31;;;;;;;2.60;1.25;;;12.80;76.20;;;;;;5008757;28;20509;-84
2023/01/03 11:46:27;;;;;;;3.70;1.13;;;12.80;76.10;;;;;;5015838;28;20099;-82
2023/01/03 11:49:24;;;;;;;4.18;1.10;;;12.90;76.20;;;;;;5009137;28;20072;-81
2023/01/03 11:52:26;;;;;;;1.98;1.10;;;12.90;76.20;;;;;;5015364;28;20052;-79
2023/01/03 11:55:35;;;;;;;2.83;0.98;;;13.00;76.20;;;;;;4991925;28;20520;-84
2023/01/03 11:59:07;;;;;;;5.88;1.42;;;13.00;76.10;;;;;;5009313;28;20052;-89
2023/01/03 12:02:20;;;;;;;17.45;1.70;;;13.10;76.20;;;;;;4989310;28;20547;-84
2023/01/03 12:05:43;;;;;;;6.18;1.50;;;13.10;76.10;;;;;;4984195;28;20073;-91
2023/01/03 12:08:42;;;;;;;2.10;0.93;;;13.20;76.20;;;;;;5004751;28;20069;-85
2023/01/03 12:11:33;;;;;;;4.28;1.00;;;13.30;76.30;;;;;;5001021;28;20048;-80
2023/01/03 12:14:26;;;;;;;2.85;1.27;;;13.40;76.40;;;;;;4992952;28;20410;-81
2023/01/03 12:17:26;;;;;;;5.40;1.33;;;13.40;76.20;;;;;;5000020;28;20393;-79
2023/01/03 12:20:23;;;;;;;5.50;1.05;;;13.50;76.20;;;;;;5002679;28;20049;-78
2023/01/03 12:23:26;;;;;;;3.97;1.42;;;13.60;76.30;;;;;;5008845;28;20072;-94
2023/01/03 12:26:14;;;;;;;4.03;1.88;;;13.70;76.30;;;;;;5006793;28;20107;-89
2023/01/03 12:29:19;;;;;;;7.38;1.27;;;13.60;76.00;;;;;;5004687;28;20048;-89
2023/01/03 12:32:15;;;;;;;6.32;2.63;;;13.60;76.00;;;;;;5007518;28;20115;-85
2023/01/03 12:35:18;;;;;;;5.20;1.70;;;13.60;76.10;;;;;;5007789;28;20076;-81
2023/01/03 12:38:05;;;;;;;7.30;2.22;;;13.60;76.20;;;;;;5005816;28;20354;-87
2023/01/03 12:40:58;;;;;;;4.13;1.15;;;13.60;76.30;;;;;;5015285;28;20099;-82
2023/01/03 12:44:03;;;;;;;8.63;2.33;;;13.60;76.30;;;;;;5013765;28;20541;-81
2023/01/03 12:46:53;;;;;;;5.35;1.60;;;13.60;76.30;;;;;;5011316;28;20705;-84
2023/01/03 12:49:44;;;;;;;7.60;1.83;;;13.60;76.20;;;;;;5007365;28;20041;-83
2023/01/03 12:52:32;;;;;;;5.85;2.15;;;13.60;76.30;;;;;;5008179;28;20221;-83
2023/01/03 12:55:29;;;;;;;8.95;2.20;;;13.60;76.20;;;;;;5007828;28;20095;-86
2023/01/03 12:58:36;;;;;;;7.57;2.10;;;13.60;76.30;;;;;;5020359;28;20096;-84
2023/01/03 13:01:43;;;;;;;9.23;2.10;;;13.50;76.10;;;;;;5017579;28;20045;-83
2023/01/03 13:04:31;;;;;;;7.57;2.53;;;13.50;76.20;;;;;;5009274;28;20103;-81
2023/01/03 13:07:30;;;;;;;8.43;2.30;;;13.50;76.10;;;;;;5009596;28;20029;-81
2023/01/03 13:10:18;;;;;;;10.85;2.40;;;13.50;76.20;;;;;;5002885;28;20125;-81
2023/01/03 13:13:04;;;;;;;12.10;3.80;;;13.50;76.20;;;;;;5002099;28;20112;-81
2023/01/03 13:15:48;;;;;;;10.73;2.30;;;13.50;76.20;;;;;;5001017;28;20110;-80
2023/01/03 13:18:34;;;;;;;9.85;2.97;;;13.50;76.20;;;;;;5008352;28;20064;-79
2023/01/03 13:21:53;;;;;;;7.63;1.80;;;13.50;76.20;;;;;;5003358;28;20068;-79
2023/01/03 13:24:43;;;;;;;16.48;3.58;;;13.50;76.10;;;;;;5006216;28;20139;-81
2023/01/03 13:27:36;;;;;;;13.13;3.45;;;13.50;76.10;;;;;;5009559;28;20148;-81
2023/01/03 13:30:35;;;;;;;11.38;3.03;;;13.50;76.00;;;;;;5002809;28;20104;-80
2023/01/03 13:33:21;;;;;;;10.40;3.05;;;13.60;76.20;;;;;;5000041;28;20394;-85
2023/01/03 13:36:05;;;;;;;14.98;3.15;;;13.60;76.10;;;;;;5010162;28;20115;-81
2023/01/03 13:38:50;;;;;;;13.63;4.05;;;13.60;76.00;;;;;;4992696;28;20496;-79
2023/01/03 13:41:39;;;;;;;9.68;2.63;;;13.50;75.80;;;;;;4998148;28;20060;-78
2023/01/03 13:44:24;;;;;;;12.45;3.17;;;13.50;75.90;;;;;;5000260;28;20064;-80
2023/01/03 13:47:35;;;;;;;9.38;3.55;;;13.50;75.90;;;;;;4991382;28;20158;-79
2023/01/03 13:50:31;;;;;;;13.80;3.45;;;13.50;75.90;;;;;;5003991;28;20211;-79
2023/01/03 13:53:18;;;;;;;10.55;2.58;;;13.50;75.90;;;;;;4997258;28;20108;-80
2023/01/03 13:56:15;;;;;;;12.13;2.75;;;13.50;76.00;;;;;;4992775;28;20056;-80
2023/01/03 13:59:09;;;;;;;8.13;3.33;;;13.50;75.90;;;;;;4987791;28;20143;-80
2023/01/03 14:02:08;;;;;;;14.20;2.67;;;13.50;75.90;;;;;;4999707;28;20054;-79
2023/01/03 14:05:41;;;;;;;8.20;2.10;;;13.70;76.10;;;;;;5006575;28;20057;-79
2023/01/03 14:08:48;;;;;;;9.32;2.20;;;13.70;75.90;;;;;;4990462;28;20054;-80
2023/01/03 14:11:48;;;;;;;7.50;2.78;;;13.80;75.70;;;;;;5005153;28;20423;-80
2023/01/03 14:14:38;;;;;;;8.63;1.95;;;13.90;75.70;;;;;;5005691;28;20099;-79
2023/01/03 14:17:31;;;;;;;11.07;2.80;;;13.90;75.60;;;;;;4999120;28;20044;-78
2023/01/03 14:20:25;;;;;;;6.68;2.67;;;13.90;75.50;;;;;;5005001;28;20156;-79
2023/01/03 14:23:14;;;;;;;5.18;2.15;;;13.90;75.50;;;;;;5007150;28;20049;-80
2023/01/03 14:26:14;;;;;;;6.22;1.65;;;13.90;75.50;;;;;;4997651;28;20045;-79
2023/01/03 14:28:59;;;;;;;7.72;2.08;;;13.80;75.40;;;;;;5001000;28;20616;-86
2023/01/03 14:31:46;;;;;;;6.68;3.03;;;13.90;75.60;;;;;;5004904;28;20041;-86
2023/01/03 14:34:34;;;;;;;8.00;2.03;;;13.90;75.60;;;;;;5002585;28;20049;-84
2023/01/03 14:37:25;;;;;;;8.45;2.15;;;13.90;75.60;;;;;;5005141;28;20036;-84
2023/01/03 14:40:18;;;;;;;7.05;2.22;;;13.90;75.60;;;;;;5013403;28;20192;-83
2023/01/03 14:43:04;;;;;;;8.60;2.53;;;13.90;75.50;;;;;;5003909;28;20053;-83
2023/01/03 14:45:53;;;;;;;8.25;2.92;;;13.90;75.50;;;;;;5002405;28;20401;-82
2023/01/03 14:48:37;;;;;;;7.85;1.92;;;13.80;75.30;;;;;;5006405;28;20440;-83
2023/01/03 14:51:22;;;;;;;6.03;2.20;;;13.90;75.50;;;;;;5017338;28;20045;-83
2023/01/03 14:54:15;;;;;;;7.10;1.70;;;13.80;75.40;;;;;;4992055;28;20463;-84
2023/01/03 14:57:00;;;;;;;7.15;2.08;;;13.80;75.40;;;;;;4989952;28;20112;-83
2023/01/03 14:59:46;;;;;;;5.20;1.92;;;13.80;75.50;;;;;;5006807;28;20041;-81
2023/01/03 15:02:36;;;;;;;5.55;2.00;;;13.80;75.60;;;;;;5010630;28;20394;-82
2023/01/03 15:05:39;;;;;;;7.13;1.60;;;13.70;75.40;;;;;;5008908;28;20379;-83
2023/01/03 15:08:27;;;;;;;4.22;1.25;;;13.70;75.40;;;;;;5005720;28;20099;-83
2023/01/03 15:11:12;;;;;;;7.60;1.60;;;13.70;75.50;;;;;;4991904;28;20065;-82
2023/01/03 15:14:05;;;;;;;3.70;1.38;;;13.70;75.50;;;;;;5012909;28;20049;-86
2023/01/03 15:16:51;;;;;;;5.10;1.48;;;13.60;75.40;;;;;;5009933;28;20132;-85
2023/01/03 15:19:39;;;;;;;5.55;1.73;;;13.60;75.50;;;;;;5004445;28;20040;-85
2023/01/03 15:22:33;;;;;;;6.75;1.60;;;13.60;75.60;;;;;;5006099;28;20123;-80
2023/01/03 15:25:19;;;;;;;3.28;1.42;;;13.50;75.50;;;;;;5010571;28;20635;-80
2023/01/03 15:28:36;;;;;;;4.72;1.20;;;13.50;75.60;;;;;;5008825;28;20116;-80
2023/01/03 15:31:32;;;;;;;2.38;1.30;;;13.50;75.60;;;;;;5009412;28;20222;-89
2023/01/03 15:34:27;;;;;;;4.10;1.45;;;13.50;75.70;;;;;;5008846;28;20036;-83
2023/01/03 15:37:20;;;;;;;5.38;1.77;;;13.50;75.70;;;;;;5001220;28;20070;-81
2023/01/03 15:40:06;;;;;;;6.97;2.00;;;13.50;75.80;;;;;;4999449;28;20044;-87
2023/01/03 15:46:01;;;;;;;4.60;1.20;;;13.50;76.10;;;;;;4999040;28;20057;-85
2023/01/03 15:48:55;;;;;;;2.97;1.00;;;13.50;76.10;;;;;;5008904;28;20045;-83
2023/01/03 15:51:40;;;;;;;5.10;1.20;;;13.50;76.20;;;;;;5020938;28;20133;-79
2023/01/03 15:54:26;;;;;;;4.45;1.02;;;13.40;76.00;;;;;;5001063;28;20112;-79
2023/01/03 15:57:19;;;;;;;3.22;1.15;;;13.50;76.30;;;;;;5004817;28;20095;-79
2023/01/03 16:00:05;;;;;;;5.05;1.15;;;13.40;76.20;;;;;;5007163;28;20132;-86
2023/01/03 16:02:50;;;;;;;4.32;1.80;;;13.40;76.20;;;;;;5008231;28;20036;-87
2023/01/03 16:05:35;;;;;;;3.70;1.15;;;13.40;76.30;;;;;;5010213;28;20065;-86
2023/01/03 16:08:26;;;;;;;2.70;1.33;;;13.30;76.20;;;;;;5006440;28;20481;-84